sensor_id;sensor_type;location;lat;lon;timestamp;temperature;humidity
15341;DHT22;7770;52.158;5.372;2022-12-24T00:01:36;10.20;99.90
15341;DHT22;7770;52.158;5.372;2022-12-24T00:04:22;10.10;99.90
15341;DHT22;7770;52.158;5.372;2022-12-24T00:07:08;10.10;99.90
15341;DHT22;7770;52.158;5.372;2022-12-24T00:09:54;10.20;99.90
15341;DHT22;7770;52.158;5.372;2022-12-24T00:12:40;10.10;99.90
15341;DHT22;7770;52.158;5.372;2022-12-24T00:15:26;10.20;99.90
15341;DHT22;7770;52.158;5.372;2022-12-24T00:18:12;10.20;99.90
15341;DHT22;7770;52.158;5.372;2022-12-24T00:20:58;10.20;99.90
15341;DHT22;7770;52.158;5.372;2022-12-24T00:23:46;10.10;99.90
15341;DHT22;7770;52.158;5.372;2022-12-24T00:26:32;10.10;99.90
15341;DHT22;7770;52.158;5.372;2022-12-24T00:29:18;10.10;99.90
15341;DHT22;7770;52.158;5.372;2022-12-24T00:32:04;10.20;99.90
15341;DHT22;7770;52.158;5.372;2022-12-24T00:34:54;10.10;99.90
15341;DHT22;7770;52.158;5.372;2022-12-24T00:37:40;10.10;99.90
15341;DHT22;7770;52.158;5.372;2022-12-24T00:40:26;10.10;99.90
15341;DHT22;7770;52.158;5.372;2022-12-24T00:43:12;10.00;99.90
15341;DHT22;7770;52.158;5.372;2022-12-24T00:45:58;10.00;99.90
15341;DHT22;7770;52.158;5.372;2022-12-24T00:48:44;10.00;99.90
15341;DHT22;7770;52.158;5.372;2022-12-24T00:51:31;9.90;99.90
15341;DHT22;7770;52.158;5.372;2022-12-24T00:54:18;9.90;99.90
15341;DHT22;7770;52.158;5.372;2022-12-24T00:57:04;9.90;99.90
15341;DHT22;7770;52.158;5.372;2022-12-24T00:59:50;9.90;99.90
15341;DHT22;7770;52.158;5.372;2022-12-24T01:02:36;9.90;99.90
15341;DHT22;7770;52.158;5.372;2022-12-24T01:05:22;9.90;99.90
15341;DHT22;7770;52.158;5.372;2022-12-24T01:08:08;9.90;99.90
15341;DHT22;7770;52.158;5.372;2022-12-24T01:10:54;9.90;99.90
15341;DHT22;7770;52.158;5.372;2022-12-24T01:13:40;9.90;99.90
15341;DHT22;7770;52.158;5.372;2022-12-24T01:16:26;9.80;99.90
15341;DHT22;7770;52.158;5.372;2022-12-24T01:19:12;9.70;99.90
15341;DHT22;7770;52.158;5.372;2022-12-24T01:21:58;9.70;99.90
15341;DHT22;7770;52.158;5.372;2022-12-24T01:24:45;9.60;99.90
15341;DHT22;7770;52.158;5.372;2022-12-24T01:27:31;9.60;99.90
15341;DHT22;7770;52.158;5.372;2022-12-24T01:30:17;9.50;99.90
15341;DHT22;7770;52.158;5.372;2022-12-24T01:33:03;9.50;99.90
15341;DHT22;7770;52.158;5.372;2022-12-24T01:35:49;9.60;99.90
15341;DHT22;7770;52.158;5.372;2022-12-24T01:38:36;9.50;99.90
15341;DHT22;7770;52.158;5.372;2022-12-24T01:41:22;9.50;99.90
15341;DHT22;7770;52.158;5.372;2022-12-24T01:44:33;9.40;99.90
15341;DHT22;7770;52.158;5.372;2022-12-24T01:47:26;9.30;99.90
15341;DHT22;7770;52.158;5.372;2022-12-24T01:50:15;9.20;99.90
15341;DHT22;7770;52.158;5.372;2022-12-24T01:53:03;9.10;99.90
15341;DHT22;7770;52.158;5.372;2022-12-24T01:55:51;9.00;99.90
15341;DHT22;7770;52.158;5.372;2022-12-24T01:58:39;9.00;99.90
15341;DHT22;7770;52.158;5.372;2022-12-24T02:01:28;8.90;99.90
15341;DHT22;7770;52.158;5.372;2022-12-24T02:04:36;8.90;99.90
15341;DHT22;7770;52.158;5.372;2022-12-24T02:07:25;8.80;99.90
15341;DHT22;7770;52.158;5.372;2022-12-24T02:10:12;8.80;99.90
15341;DHT22;7770;52.158;5.372;2022-12-24T02:12:59;8.70;99.90
15341;DHT22;7770;52.158;5.372;2022-12-24T02:15:59;8.70;99.90
15341;DHT22;7770;52.158;5.372;2022-12-24T02:22:02;8.50;99.90
15341;DHT22;7770;52.158;5.372;2022-12-24T02:31:59;8.30;99.90
15341;DHT22;7770;52.158;5.372;2022-12-24T02:35:11;8.30;99.90
15341;DHT22;7770;52.158;5.372;2022-12-24T02:38:16;8.30;99.90
15341;DHT22;7770;52.158;5.372;2022-12-24T02:41:22;8.20;99.90
15341;DHT22;7770;52.158;5.372;2022-12-24T02:44:10;8.10;99.90
15341;DHT22;7770;52.158;5.372;2022-12-24T02:46:58;8.10;99.90
15341;DHT22;7770;52.158;5.372;2022-12-24T02:49:46;8.10;99.90
15341;DHT22;7770;52.158;5.372;2022-12-24T02:52:43;8.10;99.90
15341;DHT22;7770;52.158;5.372;2022-12-24T02:56:09;8.00;99.90
15341;DHT22;7770;52.158;5.372;2022-12-24T03:05:50;8.00;99.90
15341;DHT22;7770;52.158;5.372;2022-12-24T03:08:53;7.90;99.90
15341;DHT22;7770;52.158;5.372;2022-12-24T03:11:49;7.90;99.90
15341;DHT22;7770;52.158;5.372;2022-12-24T03:14:40;7.80;99.90
15341;DHT22;7770;52.158;5.372;2022-12-24T03:17:27;7.80;99.90
15341;DHT22;7770;52.158;5.372;2022-12-24T03:20:18;7.70;99.90
15341;DHT22;7770;52.158;5.372;2022-12-24T03:23:06;7.80;99.90
15341;DHT22;7770;52.158;5.372;2022-12-24T03:25:53;7.80;99.90
15341;DHT22;7770;52.158;5.372;2022-12-24T03:28:40;7.80;99.90
15341;DHT22;7770;52.158;5.372;2022-12-24T03:31:42;7.90;99.90
15341;DHT22;7770;52.158;5.372;2022-12-24T03:34:37;7.90;99.90
15341;DHT22;7770;52.158;5.372;2022-12-24T03:37:24;7.80;99.90
15341;DHT22;7770;52.158;5.372;2022-12-24T03:40:10;7.80;99.90
15341;DHT22;7770;52.158;5.372;2022-12-24T03:42:56;7.90;99.90
15341;DHT22;7770;52.158;5.372;2022-12-24T03:45:43;7.90;99.90
15341;DHT22;7770;52.158;5.372;2022-12-24T03:48:29;8.00;99.90
15341;DHT22;7770;52.158;5.372;2022-12-24T03:51:20;8.00;99.90
15341;DHT22;7770;52.158;5.372;2022-12-24T03:54:08;8.10;99.90
15341;DHT22;7770;52.158;5.372;2022-12-24T03:56:54;8.10;99.90
15341;DHT22;7770;52.158;5.372;2022-12-24T03:59:40;8.20;99.90
15341;DHT22;7770;52.158;5.372;2022-12-24T04:02:26;8.30;99.90
15341;DHT22;7770;52.158;5.372;2022-12-24T04:05:14;8.30;99.90
15341;DHT22;7770;52.158;5.372;2022-12-24T04:08:02;8.40;99.90
15341;DHT22;7770;52.158;5.372;2022-12-24T04:10:48;8.50;99.90
15341;DHT22;7770;52.158;5.372;2022-12-24T04:13:34;8.50;99.90
15341;DHT22;7770;52.158;5.372;2022-12-24T04:16:20;8.50;99.90
15341;DHT22;7770;52.158;5.372;2022-12-24T04:19:06;8.60;99.90
15341;DHT22;7770;52.158;5.372;2022-12-24T04:21:52;8.70;99.90
15341;DHT22;7770;52.158;5.372;2022-12-24T04:24:38;8.70;99.90
15341;DHT22;7770;52.158;5.372;2022-12-24T04:27:24;8.80;99.90
15341;DHT22;7770;52.158;5.372;2022-12-24T04:30:10;8.90;99.90
15341;DHT22;7770;52.158;5.372;2022-12-24T04:32:56;8.90;99.90
15341;DHT22;7770;52.158;5.372;2022-12-24T04:35:42;9.00;99.90
15341;DHT22;7770;52.158;5.372;2022-12-24T04:38:29;9.00;99.90
15341;DHT22;7770;52.158;5.372;2022-12-24T04:41:20;9.00;99.90
15341;DHT22;7770;52.158;5.372;2022-12-24T04:44:08;9.10;99.90
15341;DHT22;7770;52.158;5.372;2022-12-24T04:46:54;9.10;99.90
15341;DHT22;7770;52.158;5.372;2022-12-24T04:49:41;9.20;99.90
15341;DHT22;7770;52.158;5.372;2022-12-24T04:52:27;9.20;99.90
15341;DHT22;7770;52.158;5.372;2022-12-24T04:55:13;9.10;99.90
15341;DHT22;7770;52.158;5.372;2022-12-24T04:57:59;9.10;99.90
15341;DHT22;7770;52.158;5.372;2022-12-24T05:00:45;9.10;99.90
15341;DHT22;7770;52.158;5.372;2022-12-24T05:03:31;9.10;99.90
15341;DHT22;7770;52.158;5.372;2022-12-24T05:06:24;9.20;99.90
15341;DHT22;7770;52.158;5.372;2022-12-24T05:09:11;9.20;99.90
15341;DHT22;7770;52.158;5.372;2022-12-24T05:11:57;9.20;99.90
15341;DHT22;7770;52.158;5.372;2022-12-24T05:14:43;9.20;99.90
15341;DHT22;7770;52.158;5.372;2022-12-24T05:17:29;9.30;99.90
15341;DHT22;7770;52.158;5.372;2022-12-24T05:20:16;9.30;99.90
15341;DHT22;7770;52.158;5.372;2022-12-24T05:23:02;9.30;99.90
15341;DHT22;7770;52.158;5.372;2022-12-24T05:26:28;9.30;99.90
15341;DHT22;7770;52.158;5.372;2022-12-24T05:29:20;9.30;99.90
15341;DHT22;7770;52.158;5.372;2022-12-24T05:32:06;9.30;99.90
15341;DHT22;7770;52.158;5.372;2022-12-24T05:34:52;9.30;99.90
15341;DHT22;7770;52.158;5.372;2022-12-24T05:37:38;9.40;99.90
15341;DHT22;7770;52.158;5.372;2022-12-24T05:40:25;9.40;99.90
15341;DHT22;7770;52.158;5.372;2022-12-24T05:43:10;9.40;99.90
15341;DHT22;7770;52.158;5.372;2022-12-24T05:46:01;9.40;99.90
15341;DHT22;7770;52.158;5.372;2022-12-24T05:48:49;9.40;99.90
15341;DHT22;7770;52.158;5.372;2022-12-24T05:51:37;9.50;99.90
15341;DHT22;7770;52.158;5.372;2022-12-24T05:54:24;9.50;99.90
15341;DHT22;7770;52.158;5.372;2022-12-24T05:57:10;9.50;99.90
15341;DHT22;7770;52.158;5.372;2022-12-24T05:59:56;9.50;99.90
15341;DHT22;7770;52.158;5.372;2022-12-24T06:02:42;9.50;99.90
15341;DHT22;7770;52.158;5.372;2022-12-24T06:05:29;9.50;99.90
15341;DHT22;7770;52.158;5.372;2022-12-24T06:08:15;9.60;99.90
15341;DHT22;7770;52.158;5.372;2022-12-24T06:11:03;9.50;99.90
15341;DHT22;7770;52.158;5.372;2022-12-24T06:13:51;9.50;99.90
15341;DHT22;7770;52.158;5.372;2022-12-24T06:16:38;9.50;99.90
15341;DHT22;7770;52.158;5.372;2022-12-24T06:19:24;9.50;99.90
15341;DHT22;7770;52.158;5.372;2022-12-24T06:22:10;9.50;99.90
15341;DHT22;7770;52.158;5.372;2022-12-24T06:24:56;9.50;99.90
15341;DHT22;7770;52.158;5.372;2022-12-24T06:27:42;9.50;99.90
15341;DHT22;7770;52.158;5.372;2022-12-24T06:30:28;9.50;99.90
15341;DHT22;7770;52.158;5.372;2022-12-24T06:33:14;9.50;99.90
15341;DHT22;7770;52.158;5.372;2022-12-24T06:36:01;9.50;99.90
15341;DHT22;7770;52.158;5.372;2022-12-24T06:38:52;9.50;99.90
15341;DHT22;7770;52.158;5.372;2022-12-24T06:41:39;9.50;99.90
15341;DHT22;7770;52.158;5.372;2022-12-24T06:44:25;9.50;99.90
15341;DHT22;7770;52.158;5.372;2022-12-24T06:47:11;9.60;99.90
15341;DHT22;7770;52.158;5.372;2022-12-24T06:49:57;9.60;99.90
15341;DHT22;7770;52.158;5.372;2022-12-24T06:52:43;9.60;99.90
15341;DHT22;7770;52.158;5.372;2022-12-24T06:55:29;9.60;99.90
15341;DHT22;7770;52.158;5.372;2022-12-24T06:58:15;9.60;99.90
15341;DHT22;7770;52.158;5.372;2022-12-24T07:01:02;9.60;99.90
15341;DHT22;7770;52.158;5.372;2022-12-24T07:03:49;9.60;99.90
15341;DHT22;7770;52.158;5.372;2022-12-24T07:06:35;9.60;99.90
15341;DHT22;7770;52.158;5.372;2022-12-24T07:09:21;9.60;99.90
15341;DHT22;7770;52.158;5.372;2022-12-24T07:12:07;9.60;99.90
15341;DHT22;7770;52.158;5.372;2022-12-24T07:14:53;9.70;99.90
15341;DHT22;7770;52.158;5.372;2022-12-24T07:17:40;9.60;99.90
15341;DHT22;7770;52.158;5.372;2022-12-24T07:20:26;9.60;99.90
15341;DHT22;7770;52.158;5.372;2022-12-24T07:23:12;9.60;99.90
15341;DHT22;7770;52.158;5.372;2022-12-24T07:26:03;9.50;99.90
15341;DHT22;7770;52.158;5.372;2022-12-24T07:28:50;9.50;99.90
15341;DHT22;7770;52.158;5.372;2022-12-24T07:31:36;9.40;99.90
15341;DHT22;7770;52.158;5.372;2022-12-24T07:34:22;9.40;99.90
15341;DHT22;7770;52.158;5.372;2022-12-24T07:37:08;9.40;99.90
15341;DHT22;7770;52.158;5.372;2022-12-24T07:39:54;9.40;99.90
15341;DHT22;7770;52.158;5.372;2022-12-24T07:42:40;9.50;99.90
15341;DHT22;7770;52.158;5.372;2022-12-24T07:45:26;9.50;99.90
15341;DHT22;7770;52.158;5.372;2022-12-24T07:48:12;9.50;99.90
15341;DHT22;7770;52.158;5.372;2022-12-24T07:50:59;9.60;99.90
15341;DHT22;7770;52.158;5.372;2022-12-24T07:53:45;9.60;99.90
15341;DHT22;7770;52.158;5.372;2022-12-24T07:56:32;9.60;99.90
15341;DHT22;7770;52.158;5.372;2022-12-24T07:59:18;9.60;99.90
15341;DHT22;7770;52.158;5.372;2022-12-24T08:02:04;9.60;99.90
15341;DHT22;7770;52.158;5.372;2022-12-24T08:04:50;9.60;99.90
15341;DHT22;7770;52.158;5.372;2022-12-24T08:07:36;9.60;99.90
15341;DHT22;7770;52.158;5.372;2022-12-24T08:10:22;9.60;99.90
15341;DHT22;7770;52.158;5.372;2022-12-24T08:13:08;9.60;99.90
15341;DHT22;7770;52.158;5.372;2022-12-24T08:15:54;9.60;99.90
15341;DHT22;7770;52.158;5.372;2022-12-24T08:18:40;9.70;99.90
15341;DHT22;7770;52.158;5.372;2022-12-24T08:21:26;9.70;99.90
15341;DHT22;7770;52.158;5.372;2022-12-24T08:24:12;9.70;99.90
15341;DHT22;7770;52.158;5.372;2022-12-24T08:26:58;9.70;99.90
15341;DHT22;7770;52.158;5.372;2022-12-24T08:29:44;9.70;99.90
15341;DHT22;7770;52.158;5.372;2022-12-24T08:32:30;9.70;99.90
15341;DHT22;7770;52.158;5.372;2022-12-24T08:35:16;9.80;99.90
15341;DHT22;7770;52.158;5.372;2022-12-24T08:38:02;9.80;99.90
15341;DHT22;7770;52.158;5.372;2022-12-24T08:40:48;9.90;99.90
15341;DHT22;7770;52.158;5.372;2022-12-24T08:43:35;10.00;99.90
15341;DHT22;7770;52.158;5.372;2022-12-24T08:46:21;10.00;99.90
15341;DHT22;7770;52.158;5.372;2022-12-24T08:49:07;10.00;99.90
15341;DHT22;7770;52.158;5.372;2022-12-24T08:51:53;10.00;99.90
15341;DHT22;7770;52.158;5.372;2022-12-24T08:54:39;10.00;99.90
15341;DHT22;7770;52.158;5.372;2022-12-24T08:57:25;10.00;99.90
15341;DHT22;7770;52.158;5.372;2022-12-24T09:00:12;10.00;99.90
15341;DHT22;7770;52.158;5.372;2022-12-24T09:02:59;10.10;99.90
15341;DHT22;7770;52.158;5.372;2022-12-24T09:05:45;10.10;99.90
15341;DHT22;7770;52.158;5.372;2022-12-24T09:08:32;10.20;99.90
15341;DHT22;7770;52.158;5.372;2022-12-24T09:11:19;10.30;99.90
15341;DHT22;7770;52.158;5.372;2022-12-24T09:14:05;10.20;99.90
15341;DHT22;7770;52.158;5.372;2022-12-24T09:16:51;10.20;99.90
15341;DHT22;7770;52.158;5.372;2022-12-24T09:19:37;10.20;99.90
15341;DHT22;7770;52.158;5.372;2022-12-24T09:22:23;10.20;99.90
15341;DHT22;7770;52.158;5.372;2022-12-24T09:25:09;10.20;99.90
15341;DHT22;7770;52.158;5.372;2022-12-24T09:27:55;10.20;99.90
15341;DHT22;7770;52.158;5.372;2022-12-24T09:30:41;10.30;99.90
15341;DHT22;7770;52.158;5.372;2022-12-24T09:33:33;10.30;99.90
15341;DHT22;7770;52.158;5.372;2022-12-24T09:36:20;10.30;99.90
15341;DHT22;7770;52.158;5.372;2022-12-24T09:39:07;10.30;99.90
15341;DHT22;7770;52.158;5.372;2022-12-24T09:45:07;10.50;99.90
15341;DHT22;7770;52.158;5.372;2022-12-24T09:48:11;10.60;99.90
15341;DHT22;7770;52.158;5.372;2022-12-24T09:51:15;10.60;99.90
15341;DHT22;7770;52.158;5.372;2022-12-24T09:54:23;10.60;99.90
15341;DHT22;7770;52.158;5.372;2022-12-24T09:57:26;10.60;99.90
15341;DHT22;7770;52.158;5.372;2022-12-24T10:03:15;10.60;99.90
15341;DHT22;7770;52.158;5.372;2022-12-24T10:06:18;10.60;99.90
15341;DHT22;7770;52.158;5.372;2022-12-24T10:09:10;10.70;99.90
15341;DHT22;7770;52.158;5.372;2022-12-24T10:22:07;11.50;99.90
15341;DHT22;7770;52.158;5.372;2022-12-24T10:28:22;12.50;99.90
15341;DHT22;7770;52.158;5.372;2022-12-24T10:31:15;13.20;99.90
15341;DHT22;7770;52.158;5.372;2022-12-24T10:34:11;14.10;99.90
15341;DHT22;7770;52.158;5.372;2022-12-24T10:37:14;14.20;99.90
15341;DHT22;7770;52.158;5.372;2022-12-24T10:40:03;14.30;99.90
15341;DHT22;7770;52.158;5.372;2022-12-24T10:42:49;14.10;99.90
15341;DHT22;7770;52.158;5.372;2022-12-24T10:45:39;13.40;99.90
15341;DHT22;7770;52.158;5.372;2022-12-24T10:48:57;12.70;99.90
15341;DHT22;7770;52.158;5.372;2022-12-24T10:52:11;12.30;99.90
15341;DHT22;7770;52.158;5.372;2022-12-24T10:55:09;12.20;99.90
15341;DHT22;7770;52.158;5.372;2022-12-24T10:58:04;12.20;99.90
15341;DHT22;7770;52.158;5.372;2022-12-24T11:00:52;12.00;99.90
15341;DHT22;7770;52.158;5.372;2022-12-24T11:03:39;12.00;99.90
15341;DHT22;7770;52.158;5.372;2022-12-24T11:06:27;12.00;99.90
15341;DHT22;7770;52.158;5.372;2022-12-24T11:09:27;11.80;99.90
15341;DHT22;7770;52.158;5.372;2022-12-24T11:12:21;11.60;99.90
15341;DHT22;7770;52.158;5.372;2022-12-24T11:15:28;11.60;99.90
15341;DHT22;7770;52.158;5.372;2022-12-24T11:18:16;11.50;99.90
15341;DHT22;7770;52.158;5.372;2022-12-24T11:21:03;11.40;99.90
15341;DHT22;7770;52.158;5.372;2022-12-24T11:23:58;11.30;99.90
15341;DHT22;7770;52.158;5.372;2022-12-24T11:26:45;11.20;99.90
15341;DHT22;7770;52.158;5.372;2022-12-24T11:29:31;11.10;99.90
15341;DHT22;7770;52.158;5.372;2022-12-24T11:32:22;11.10;99.90
15341;DHT22;7770;52.158;5.372;2022-12-24T11:35:22;11.10;99.90
15341;DHT22;7770;52.158;5.372;2022-12-24T11:38:11;11.00;99.90
15341;DHT22;7770;52.158;5.372;2022-12-24T11:41:10;10.90;99.90
15341;DHT22;7770;52.158;5.372;2022-12-24T11:44:01;10.80;99.90
15341;DHT22;7770;52.158;5.372;2022-12-24T11:46:53;10.80;99.90
15341;DHT22;7770;52.158;5.372;2022-12-24T11:49:43;10.80;99.90
15341;DHT22;7770;52.158;5.372;2022-12-24T11:52:29;10.80;99.90
15341;DHT22;7770;52.158;5.372;2022-12-24T11:55:17;10.80;99.90
15341;DHT22;7770;52.158;5.372;2022-12-24T11:58:43;10.80;99.90
15341;DHT22;7770;52.158;5.372;2022-12-24T12:01:56;10.90;99.90
15341;DHT22;7770;52.158;5.372;2022-12-24T12:04:49;10.90;99.90
15341;DHT22;7770;52.158;5.372;2022-12-24T12:07:38;11.10;99.90
15341;DHT22;7770;52.158;5.372;2022-12-24T12:10:27;11.10;99.90
15341;DHT22;7770;52.158;5.372;2022-12-24T12:13:28;11.60;99.90
15341;DHT22;7770;52.158;5.372;2022-12-24T12:19:09;12.50;99.90
15341;DHT22;7770;52.158;5.372;2022-12-24T12:21:57;12.20;99.90
15341;DHT22;7770;52.158;5.372;2022-12-24T12:24:47;12.00;99.90
15341;DHT22;7770;52.158;5.372;2022-12-24T12:27:43;11.70;99.90
15341;DHT22;7770;52.158;5.372;2022-12-24T12:30:31;11.50;99.90
15341;DHT22;7770;52.158;5.372;2022-12-24T12:33:42;11.40;99.90
15341;DHT22;7770;52.158;5.372;2022-12-24T12:36:38;11.30;99.90
15341;DHT22;7770;52.158;5.372;2022-12-24T12:39:34;11.20;99.90
15341;DHT22;7770;52.158;5.372;2022-12-24T12:42:36;11.20;99.90
15341;DHT22;7770;52.158;5.372;2022-12-24T12:49:08;11.30;99.90
15341;DHT22;7770;52.158;5.372;2022-12-24T12:52:05;11.40;99.90
15341;DHT22;7770;52.158;5.372;2022-12-24T13:12:19;11.10;99.90
15341;DHT22;7770;52.158;5.372;2022-12-24T13:21:28;11.10;99.90
15341;DHT22;7770;52.158;5.372;2022-12-24T13:24:17;11.10;99.90
15341;DHT22;7770;52.158;5.372;2022-12-24T13:30:31;11.10;99.90
15341;DHT22;7770;52.158;5.372;2022-12-24T13:36:23;11.00;99.90
15341;DHT22;7770;52.158;5.372;2022-12-24T13:39:18;11.00;99.90
15341;DHT22;7770;52.158;5.372;2022-12-24T13:42:05;11.00;99.90
15341;DHT22;7770;52.158;5.372;2022-12-24T13:48:31;11.00;99.90
15341;DHT22;7770;52.158;5.372;2022-12-24T13:51:19;11.10;99.90
15341;DHT22;7770;52.158;5.372;2022-12-24T13:54:12;11.00;99.90
15341;DHT22;7770;52.158;5.372;2022-12-24T13:56:59;11.00;99.90
15341;DHT22;7770;52.158;5.372;2022-12-24T13:59:45;10.90;99.90
15341;DHT22;7770;52.158;5.372;2022-12-24T14:02:36;10.80;99.90
15341;DHT22;7770;52.158;5.372;2022-12-24T14:08:38;10.90;99.90
15341;DHT22;7770;52.158;5.372;2022-12-24T14:11:27;10.90;99.90
15341;DHT22;7770;52.158;5.372;2022-12-24T14:14:34;11.00;99.90
15341;DHT22;7770;52.158;5.372;2022-12-24T14:17:26;11.00;99.90
15341;DHT22;7770;52.158;5.372;2022-12-24T14:20:15;11.00;99.90
15341;DHT22;7770;52.158;5.372;2022-12-24T14:23:03;10.90;99.90
15341;DHT22;7770;52.158;5.372;2022-12-24T14:25:50;11.00;99.90
15341;DHT22;7770;52.158;5.372;2022-12-24T14:28:40;11.00;99.90
15341;DHT22;7770;52.158;5.372;2022-12-24T14:31:28;10.90;99.90
15341;DHT22;7770;52.158;5.372;2022-12-24T14:34:14;10.80;99.90
15341;DHT22;7770;52.158;5.372;2022-12-24T14:37:02;10.80;99.90
15341;DHT22;7770;52.158;5.372;2022-12-24T14:39:49;10.80;99.90
15341;DHT22;7770;52.158;5.372;2022-12-24T14:42:56;10.80;99.90
15341;DHT22;7770;52.158;5.372;2022-12-24T14:55:00;10.60;99.90
15341;DHT22;7770;52.158;5.372;2022-12-24T14:58:26;10.60;99.90
15341;DHT22;7770;52.158;5.372;2022-12-24T15:01:26;10.50;99.90
15341;DHT22;7770;52.158;5.372;2022-12-24T15:04:15;10.40;99.90
15341;DHT22;7770;52.158;5.372;2022-12-24T15:07:02;10.30;99.90
15341;DHT22;7770;52.158;5.372;2022-12-24T15:09:49;10.20;99.90
15341;DHT22;7770;52.158;5.372;2022-12-24T15:12:39;10.10;99.90
15341;DHT22;7770;52.158;5.372;2022-12-24T15:15:25;10.00;99.90
15341;DHT22;7770;52.158;5.372;2022-12-24T15:18:15;9.90;99.90
15341;DHT22;7770;52.158;5.372;2022-12-24T15:21:05;9.80;99.90
15341;DHT22;7770;52.158;5.372;2022-12-24T15:23:52;9.80;99.90
15341;DHT22;7770;52.158;5.372;2022-12-24T15:26:43;9.70;99.90
15341;DHT22;7770;52.158;5.372;2022-12-24T15:29:31;9.60;99.90
15341;DHT22;7770;52.158;5.372;2022-12-24T15:32:19;9.60;99.90
15341;DHT22;7770;52.158;5.372;2022-12-24T15:35:28;9.50;99.90
15341;DHT22;7770;52.158;5.372;2022-12-24T15:38:36;9.40;99.90
15341;DHT22;7770;52.158;5.372;2022-12-24T15:41:27;9.30;99.90
15341;DHT22;7770;52.158;5.372;2022-12-24T15:44:17;9.20;99.90
15341;DHT22;7770;52.158;5.372;2022-12-24T15:47:06;9.20;99.90
15341;DHT22;7770;52.158;5.372;2022-12-24T15:49:54;9.10;99.90
15341;DHT22;7770;52.158;5.372;2022-12-24T15:52:40;9.10;99.90
15341;DHT22;7770;52.158;5.372;2022-12-24T15:55:35;9.00;99.90
15341;DHT22;7770;52.158;5.372;2022-12-24T15:58:28;9.00;99.90
15341;DHT22;7770;52.158;5.372;2022-12-24T16:04:12;8.90;99.90
15341;DHT22;7770;52.158;5.372;2022-12-24T16:07:01;8.80;99.90
15341;DHT22;7770;52.158;5.372;2022-12-24T16:09:49;8.80;99.90
15341;DHT22;7770;52.158;5.372;2022-12-24T16:12:35;8.80;99.90
15341;DHT22;7770;52.158;5.372;2022-12-24T16:15:21;8.80;99.90
15341;DHT22;7770;52.158;5.372;2022-12-24T16:18:17;8.80;99.90
15341;DHT22;7770;52.158;5.372;2022-12-24T16:21:07;8.80;99.90
15341;DHT22;7770;52.158;5.372;2022-12-24T16:23:56;8.70;99.90
15341;DHT22;7770;52.158;5.372;2022-12-24T16:26:49;8.70;99.90
15341;DHT22;7770;52.158;5.372;2022-12-24T16:29:35;8.60;99.90
15341;DHT22;7770;52.158;5.372;2022-12-24T16:32:33;8.50;99.90
15341;DHT22;7770;52.158;5.372;2022-12-24T16:35:27;8.40;99.90
15341;DHT22;7770;52.158;5.372;2022-12-24T16:38:18;8.30;99.90
15341;DHT22;7770;52.158;5.372;2022-12-24T16:41:04;8.30;99.90
15341;DHT22;7770;52.158;5.372;2022-12-24T16:43:50;8.20;99.90
15341;DHT22;7770;52.158;5.372;2022-12-24T16:46:36;8.10;99.90
15341;DHT22;7770;52.158;5.372;2022-12-24T16:49:22;8.10;99.90
15341;DHT22;7770;52.158;5.372;2022-12-24T16:52:19;8.00;99.90
15341;DHT22;7770;52.158;5.372;2022-12-24T16:55:08;8.00;99.90
15341;DHT22;7770;52.158;5.372;2022-12-24T16:57:56;8.00;99.90
15341;DHT22;7770;52.158;5.372;2022-12-24T17:00:43;8.00;99.90
15341;DHT22;7770;52.158;5.372;2022-12-24T17:03:29;8.00;99.90
15341;DHT22;7770;52.158;5.372;2022-12-24T17:06:15;8.10;99.90
15341;DHT22;7770;52.158;5.372;2022-12-24T17:09:01;8.10;99.90
15341;DHT22;7770;52.158;5.372;2022-12-24T17:11:47;8.10;99.90
15341;DHT22;7770;52.158;5.372;2022-12-24T17:14:33;8.10;99.90
15341;DHT22;7770;52.158;5.372;2022-12-24T17:17:23;8.10;99.90
15341;DHT22;7770;52.158;5.372;2022-12-24T17:20:10;8.10;99.90
15341;DHT22;7770;52.158;5.372;2022-12-24T17:22:56;8.00;99.90
15341;DHT22;7770;52.158;5.372;2022-12-24T17:25:45;7.90;99.90
15341;DHT22;7770;52.158;5.372;2022-12-24T17:28:31;7.90;99.90
15341;DHT22;7770;52.158;5.372;2022-12-24T17:31:17;7.90;99.90
15341;DHT22;7770;52.158;5.372;2022-12-24T17:34:03;7.90;99.90
15341;DHT22;7770;52.158;5.372;2022-12-24T17:36:49;7.90;99.90
15341;DHT22;7770;52.158;5.372;2022-12-24T17:39:35;7.80;99.90
15341;DHT22;7770;52.158;5.372;2022-12-24T17:42:21;7.70;99.90
15341;DHT22;7770;52.158;5.372;2022-12-24T17:45:08;7.80;99.90
15341;DHT22;7770;52.158;5.372;2022-12-24T17:47:54;7.80;99.90
15341;DHT22;7770;52.158;5.372;2022-12-24T17:50:40;7.80;99.90
15341;DHT22;7770;52.158;5.372;2022-12-24T17:53:26;7.90;99.90
15341;DHT22;7770;52.158;5.372;2022-12-24T17:56:13;7.80;99.90
15341;DHT22;7770;52.158;5.372;2022-12-24T17:59:00;7.80;99.90
15341;DHT22;7770;52.158;5.372;2022-12-24T18:01:46;7.80;99.90
15341;DHT22;7770;52.158;5.372;2022-12-24T18:04:32;7.90;99.90
15341;DHT22;7770;52.158;5.372;2022-12-24T18:07:18;7.80;99.90
15341;DHT22;7770;52.158;5.372;2022-12-24T18:10:04;7.80;99.90
15341;DHT22;7770;52.158;5.372;2022-12-24T18:12:51;7.80;99.90
15341;DHT22;7770;52.158;5.372;2022-12-24T18:15:38;7.80;99.90
15341;DHT22;7770;52.158;5.372;2022-12-24T18:18:24;7.80;99.90
15341;DHT22;7770;52.158;5.372;2022-12-24T18:21:11;7.70;99.90
15341;DHT22;7770;52.158;5.372;2022-12-24T18:23:57;7.70;99.90
15341;DHT22;7770;52.158;5.372;2022-12-24T18:26:44;7.60;99.90
15341;DHT22;7770;52.158;5.372;2022-12-24T18:29:30;7.60;99.90
15341;DHT22;7770;52.158;5.372;2022-12-24T18:32:16;7.60;99.90
15341;DHT22;7770;52.158;5.372;2022-12-24T18:35:03;7.60;99.90
15341;DHT22;7770;52.158;5.372;2022-12-24T18:37:50;7.70;99.90
15341;DHT22;7770;52.158;5.372;2022-12-24T18:40:36;7.70;99.90
15341;DHT22;7770;52.158;5.372;2022-12-24T18:43:22;7.70;99.90
15341;DHT22;7770;52.158;5.372;2022-12-24T18:46:10;7.70;99.90
15341;DHT22;7770;52.158;5.372;2022-12-24T18:48:58;7.70;99.90
15341;DHT22;7770;52.158;5.372;2022-12-24T18:51:45;7.70;99.90
15341;DHT22;7770;52.158;5.372;2022-12-24T18:54:31;7.70;99.90
15341;DHT22;7770;52.158;5.372;2022-12-24T18:57:17;7.70;99.90
15341;DHT22;7770;52.158;5.372;2022-12-24T19:00:03;7.70;99.90
15341;DHT22;7770;52.158;5.372;2022-12-24T19:02:50;7.60;99.90
15341;DHT22;7770;52.158;5.372;2022-12-24T19:05:36;7.60;99.90
15341;DHT22;7770;52.158;5.372;2022-12-24T19:08:22;7.60;99.90
15341;DHT22;7770;52.158;5.372;2022-12-24T19:11:08;7.60;99.90
15341;DHT22;7770;52.158;5.372;2022-12-24T19:13:54;7.70;99.90
15341;DHT22;7770;52.158;5.372;2022-12-24T19:16:42;7.70;99.90
15341;DHT22;7770;52.158;5.372;2022-12-24T19:19:28;7.60;99.90
15341;DHT22;7770;52.158;5.372;2022-12-24T19:22:15;7.60;99.90
15341;DHT22;7770;52.158;5.372;2022-12-24T19:25:01;7.60;99.90
15341;DHT22;7770;52.158;5.372;2022-12-24T19:27:47;7.70;99.90
15341;DHT22;7770;52.158;5.372;2022-12-24T19:30:38;7.80;99.90
15341;DHT22;7770;52.158;5.372;2022-12-24T19:33:26;7.90;99.90
15341;DHT22;7770;52.158;5.372;2022-12-24T19:36:21;7.90;99.90
15341;DHT22;7770;52.158;5.372;2022-12-24T19:39:08;8.00;99.90
15341;DHT22;7770;52.158;5.372;2022-12-24T19:41:54;8.10;99.90
15341;DHT22;7770;52.158;5.372;2022-12-24T19:44:40;8.20;99.90
15341;DHT22;7770;52.158;5.372;2022-12-24T19:47:26;8.20;99.90
15341;DHT22;7770;52.158;5.372;2022-12-24T19:50:13;8.20;99.90
15341;DHT22;7770;52.158;5.372;2022-12-24T19:53:00;8.30;99.90